MDZ weather

El Plumerillo Airport
Mendoza, Mendoza Province, Argentina

Public forecast

Using degrees Celsius for public forecast. Weather courtesy of forecast.io.

METAR (pilot weather report)

Retrieved 2019/05/22 10:00 UTC (26 minutes ago):

SAME 221000Z 27003KT 8000 FEW050 03/02 Q1027

TAF (pilot weather forecast)

Retrieved 2019/05/22 06:00 UTC (4 hours ago):

TAF SAME 220500Z 2206/2306 VRB03KT 9999 OVC030 TX12/2220Z TN03/2210Z TEMPO 2206/2210 5000 -RA OVC025